createdAt,value
2023-02-22T00:02:13.118Z,62.40
2023-02-22T00:04:41.521Z,60.00
2023-02-22T00:07:09.903Z,60.00
2023-02-22T00:09:37.994Z,59.20
2023-02-22T00:12:06.349Z,59.40
2023-02-22T00:14:35.767Z,60.90
2023-02-22T00:17:03.794Z,54.30
2023-02-22T00:19:31.898Z,53.80
2023-02-22T00:22:00.142Z,53.10
2023-02-22T00:24:29.539Z,53.60
2023-02-22T00:26:57.689Z,55.40
2023-02-22T00:29:26.680Z,55.90
2023-02-22T00:31:56.244Z,59.30
2023-02-22T00:34:24.604Z,63.10
2023-02-22T00:36:52.796Z,58.90
2023-02-22T00:39:20.892Z,52.00
2023-02-22T00:41:49.762Z,54.10
2023-02-22T00:44:17.934Z,57.70
2023-02-22T00:46:46.121Z,60.70
2023-02-22T00:49:15.582Z,61.70
2023-02-22T00:51:43.685Z,64.50
2023-02-22T00:54:11.976Z,65.60
2023-02-22T00:56:40.040Z,67.30
2023-02-22T00:59:08.120Z,68.60
2023-02-22T01:01:36.220Z,90.10
2023-02-22T01:04:04.588Z,68.00
2023-02-22T01:06:34.210Z,67.10
2023-02-22T01:09:03.206Z,66.10
2023-02-22T01:11:31.322Z,80.90
2023-02-22T01:14:00.001Z,62.80
2023-02-22T01:16:28.395Z,63.10
2023-02-22T01:18:56.476Z,64.30
2023-02-22T01:21:24.508Z,82.60
2023-02-22T01:23:55.030Z,65.00
2023-02-22T01:26:23.102Z,63.20
2023-02-22T01:28:51.138Z,61.80
2023-02-22T01:31:19.518Z,62.10
2023-02-22T01:33:47.877Z,58.00
2023-02-22T01:36:16.540Z,57.00
2023-02-22T01:38:45.089Z,57.90
2023-02-22T01:41:18.420Z,54.50
2023-02-22T01:43:46.697Z,54.10
2023-02-22T01:46:24.025Z,54.60
2023-02-22T01:48:55.904Z,54.40
2023-02-22T01:51:27.811Z,84.00
2023-02-22T01:53:59.996Z,58.80
2023-02-22T01:56:33.796Z,60.30
2023-02-22T01:59:06.738Z,64.60
2023-02-22T02:01:36.073Z,91.80
2023-02-22T02:06:39.740Z,64.90
2023-02-22T02:09:15.823Z,66.80
2023-02-22T02:11:46.746Z,65.40
2023-02-22T02:14:15.258Z,64.70
2023-02-22T02:16:46.378Z,63.90
2023-02-22T02:19:22.537Z,62.10
2023-02-22T02:22:20.624Z,59.70
2023-02-22T02:25:12.656Z,53.90
2023-02-22T02:27:59.342Z,57.30
2023-02-22T02:30:55.197Z,56.50
2023-02-22T02:33:31.006Z,56.40
2023-02-22T02:43:38.105Z,50.70
2023-02-22T02:46:11.121Z,55.70
2023-02-22T02:48:43.943Z,56.00
2023-02-22T02:51:14.785Z,55.70
2023-02-22T02:53:46.433Z,56.20
2023-02-22T02:56:14.497Z,55.60
2023-02-22T02:58:49.115Z,54.10
2023-02-22T03:01:23.659Z,55.30
2023-02-22T03:04:06.343Z,57.60
2023-02-22T03:07:03.126Z,59.70
2023-02-22T03:09:45.123Z,56.60
2023-02-22T03:12:24.128Z,84.30
2023-02-22T03:15:04.190Z,62.40
2023-02-22T03:17:42.456Z,61.90
2023-02-22T03:20:18.966Z,61.70
2023-02-22T03:22:53.316Z,61.00
2023-02-22T03:25:25.856Z,60.80
2023-02-22T03:27:56.670Z,60.00
2023-02-22T03:30:29.302Z,59.90
2023-02-22T03:33:02.954Z,59.80
2023-02-22T03:35:35.923Z,58.70
2023-02-22T03:38:07.075Z,58.60
2023-02-22T03:40:38.901Z,58.50
2023-02-22T03:43:10.343Z,59.60
2023-02-22T03:45:43.481Z,58.80
2023-02-22T03:48:20.580Z,58.20
2023-02-22T03:50:51.126Z,58.70
2023-02-22T03:53:20.473Z,58.60
2023-02-22T03:55:51.638Z,59.60
2023-02-22T03:58:23.035Z,59.80
2023-02-22T04:00:53.235Z,59.60
2023-02-22T04:03:22.017Z,59.60
2023-02-22T04:05:51.640Z,59.50
2023-02-22T04:08:19.704Z,60.40
2023-02-22T04:10:47.911Z,61.10
2023-02-22T04:13:15.987Z,64.60
2023-02-22T04:15:44.125Z,66.60
2023-02-22T04:18:12.160Z,65.50
2023-02-22T04:20:40.176Z,63.40
2023-02-22T04:23:09.555Z,67.70
2023-02-22T04:25:37.754Z,64.60
2023-02-22T04:28:05.986Z,63.50
2023-02-22T04:30:34.036Z,65.70
2023-02-22T04:33:02.066Z,65.70
2023-02-22T04:35:30.109Z,66.70
2023-02-22T04:37:58.191Z,65.80
2023-02-22T04:40:27.562Z,65.70
2023-02-22T04:42:55.592Z,65.00
2023-02-22T04:45:23.730Z,64.20
2023-02-22T04:47:52.057Z,63.90
2023-02-22T04:50:20.404Z,62.70
2023-02-22T04:52:48.584Z,60.90
2023-02-22T04:55:17.160Z,60.00
2023-02-22T04:57:46.605Z,58.60
2023-02-22T05:00:18.427Z,58.00
2023-02-22T05:02:46.674Z,56.30
2023-02-22T05:05:15.143Z,57.60
2023-02-22T05:07:43.431Z,57.10
2023-02-22T05:10:12.827Z,57.00
2023-02-22T05:12:41.095Z,56.90
2023-02-22T05:15:11.636Z,57.30
2023-02-22T05:17:39.737Z,57.20
2023-02-22T05:20:09.105Z,58.00
2023-02-22T05:22:37.243Z,58.60
2023-02-22T05:25:05.613Z,58.50
2023-02-22T05:27:33.622Z,57.80
2023-02-22T05:30:01.622Z,58.30
2023-02-22T05:32:31.019Z,57.90
2023-02-22T05:34:59.023Z,57.10
2023-02-22T05:37:27.408Z,56.40
2023-02-22T05:39:55.679Z,56.20
2023-02-22T05:42:23.704Z,75.60
2023-02-22T05:44:51.743Z,54.50
2023-02-22T05:47:19.785Z,55.00
2023-02-22T05:49:49.181Z,55.60
2023-02-22T05:52:17.285Z,77.00
2023-02-22T05:54:45.428Z,55.90
2023-02-22T05:57:13.579Z,57.90
2023-02-22T05:59:43.072Z,56.80
2023-02-22T06:02:11.287Z,76.10
2023-02-22T06:04:40.086Z,54.00
2023-02-22T06:07:09.474Z,53.20
2023-02-22T06:09:37.498Z,53.20
2023-02-22T06:12:06.237Z,53.30
2023-02-22T06:14:34.538Z,53.00
2023-02-22T06:17:02.593Z,53.10
2023-02-22T06:19:30.655Z,52.50
2023-02-22T06:22:00.076Z,52.00
2023-02-22T06:24:29.537Z,52.30
2023-02-22T06:26:58.369Z,53.10
2023-02-22T06:29:26.688Z,53.10
2023-02-22T06:31:54.931Z,53.60
2023-02-22T06:34:23.234Z,54.30
2023-02-22T06:36:51.415Z,54.70
2023-02-22T06:39:19.905Z,56.10
2023-02-22T06:41:51.404Z,55.20
2023-02-22T06:44:19.617Z,56.40
2023-02-22T06:46:51.958Z,54.50
2023-02-22T06:49:21.525Z,55.00
2023-02-22T06:51:49.807Z,54.70
2023-02-22T06:54:17.959Z,55.60
2023-02-22T06:56:46.254Z,55.00
2023-02-22T06:59:15.688Z,57.30
2023-02-22T07:01:44.670Z,57.90
2023-02-22T07:04:12.919Z,55.00
2023-02-22T07:06:40.935Z,54.80
2023-02-22T07:09:08.949Z,55.30
2023-02-22T07:11:39.789Z,58.10
2023-02-22T07:14:07.989Z,58.10
2023-02-22T07:16:37.646Z,61.50
2023-02-22T07:19:05.719Z,65.90
2023-02-22T07:21:33.771Z,61.30
2023-02-22T07:24:03.334Z,61.20
2023-02-22T07:26:38.930Z,61.80
2023-02-22T07:29:06.954Z,62.00
2023-02-22T07:31:38.365Z,55.50
2023-02-22T07:34:06.800Z,54.00
2023-02-22T07:36:34.939Z,54.30
2023-02-22T07:39:03.041Z,53.50
2023-02-22T07:41:31.150Z,52.60
2023-02-22T07:43:59.226Z,53.30
2023-02-22T07:46:27.308Z,52.70
2023-02-22T07:48:56.685Z,52.70
2023-02-22T07:51:24.790Z,51.80
2023-02-22T07:53:52.794Z,51.00
2023-02-22T07:56:20.830Z,51.90
2023-02-22T07:58:48.992Z,52.50
2023-02-22T08:01:17.444Z,56.60
2023-02-22T08:03:47.660Z,50.60
2023-02-22T08:06:18.006Z,51.30
2023-02-22T08:08:46.195Z,56.70
2023-02-22T08:11:14.652Z,57.50
2023-02-22T08:13:42.873Z,57.10
2023-02-22T08:16:10.952Z,56.80
2023-02-22T08:18:41.034Z,55.30
2023-02-22T08:21:09.236Z,57.10
2023-02-22T08:23:38.879Z,56.40
2023-02-22T08:26:08.548Z,52.70
2023-02-22T08:28:36.752Z,53.20
2023-02-22T08:31:07.772Z,53.70
2023-02-22T08:33:35.905Z,53.10
2023-02-22T08:36:04.140Z,49.00
2023-02-22T08:38:34.126Z,48.60
2023-02-22T08:41:03.717Z,49.70
2023-02-22T08:43:31.832Z,51.90
2023-02-22T08:46:00.023Z,50.80
2023-02-22T08:48:28.196Z,49.80
2023-02-22T08:50:56.382Z,65.40
2023-02-22T08:53:24.481Z,47.10
2023-02-22T08:55:53.816Z,50.80
2023-02-22T08:58:23.260Z,47.40
2023-02-22T09:00:51.524Z,28.80
2023-02-22T09:03:19.570Z,47.80
2023-02-22T09:05:47.774Z,26.70
2023-02-22T09:08:17.061Z,27.00
2023-02-22T09:10:45.775Z,25.00
2023-02-22T09:13:14.205Z,43.00
2023-02-22T09:18:14.646Z,21.10
2023-02-22T09:20:43.082Z,21.90
2023-02-22T09:23:14.508Z,36.90
2023-02-22T09:25:42.669Z,21.70
2023-02-22T09:28:11.066Z,37.70
2023-02-22T09:30:39.554Z,20.10
2023-02-22T09:33:11.091Z,37.60
2023-02-22T09:35:42.212Z,19.20
2023-02-22T09:38:11.683Z,20.50
2023-02-22T09:40:45.095Z,21.40
2023-02-22T09:43:40.579Z,39.10
2023-02-22T09:46:20.365Z,21.30
2023-02-22T09:49:06.912Z,22.00
2023-02-22T09:51:42.389Z,22.20
2023-02-22T09:54:19.360Z,21.00
2023-02-22T09:56:49.627Z,21.10
2023-02-22T09:59:26.950Z,21.00
2023-02-22T10:02:00.742Z,20.60
2023-02-22T10:04:41.313Z,19.90
2023-02-22T10:07:18.376Z,20.30
2023-02-22T10:09:49.830Z,38.20
2023-02-22T10:12:28.778Z,19.60
2023-02-22T10:15:35.715Z,18.30
2023-02-22T10:18:32.748Z,18.20
2023-02-22T10:21:13.132Z,17.10
2023-02-22T10:23:51.851Z,15.10
2023-02-22T10:26:23.543Z,15.70
2023-02-22T10:28:56.367Z,17.00
2023-02-22T10:31:29.072Z,16.80
2023-02-22T10:34:01.939Z,15.30
2023-02-22T10:36:31.411Z,15.70
2023-02-22T10:39:01.141Z,32.40
2023-02-22T10:41:31.473Z,15.30
2023-02-22T10:43:59.820Z,14.10
2023-02-22T10:46:30.504Z,14.30
2023-02-22T10:49:03.730Z,13.30
2023-02-22T10:51:34.660Z,14.40
2023-02-22T10:54:22.322Z,14.80
2023-02-22T10:56:52.421Z,13.50
2023-02-22T10:59:34.187Z,14.00
2023-02-22T11:02:09.111Z,13.90
2023-02-22T11:04:49.548Z,12.50
2023-02-22T11:07:27.200Z,30.70
2023-02-22T11:09:57.756Z,27.30
2023-02-22T11:12:32.163Z,13.50
2023-02-22T11:15:29.557Z,12.20
2023-02-22T11:18:01.357Z,12.20
2023-02-22T11:20:34.601Z,10.60
2023-02-22T11:23:08.182Z,9.10
2023-02-22T11:25:38.105Z,10.10
2023-02-22T11:28:12.909Z,9.20
2023-02-22T11:30:43.925Z,9.40
2023-02-22T11:33:23.960Z,22.70
2023-02-22T11:35:54.337Z,9.10
2023-02-22T11:38:25.556Z,9.00
2023-02-22T11:41:15.595Z,8.20
2023-02-22T11:43:44.912Z,7.90
2023-02-22T11:46:15.912Z,7.60
2023-02-22T11:48:55.104Z,5.20
2023-02-22T11:51:33.454Z,5.30
2023-02-22T11:56:51.496Z,5.00
2023-02-22T11:59:27.866Z,6.70
2023-02-22T12:02:00.123Z,10.20
2023-02-22T12:04:52.315Z,10.60
2023-02-22T12:07:35.782Z,11.20
2023-02-22T12:10:19.252Z,10.40
2023-02-22T12:13:03.466Z,11.00
2023-02-22T12:15:38.800Z,11.90
2023-02-22T12:18:14.523Z,11.70
2023-02-22T12:20:47.766Z,11.30
2023-02-22T12:23:22.624Z,25.70
2023-02-22T12:26:00.135Z,10.20
2023-02-22T12:28:35.545Z,10.60
2023-02-22T12:31:15.936Z,10.00
2023-02-22T12:33:51.445Z,8.80
2023-02-22T12:36:34.058Z,9.10
2023-02-22T12:39:07.718Z,8.90
2023-02-22T12:41:41.451Z,8.50
2023-02-22T12:44:20.271Z,8.80
2023-02-22T12:46:52.626Z,9.30
2023-02-22T12:49:29.494Z,9.50
2023-02-22T12:52:15.952Z,9.70
2023-02-22T12:54:56.232Z,8.20
2023-02-22T12:57:32.256Z,8.50
2023-02-22T13:00:06.754Z,9.00
2023-02-22T13:02:42.952Z,9.00
2023-02-22T13:05:16.376Z,8.30
2023-02-22T13:07:52.937Z,8.40
2023-02-22T13:10:41.585Z,8.90
2023-02-22T13:13:18.659Z,22.40
2023-02-22T13:15:57.434Z,8.50
2023-02-22T13:18:33.523Z,8.80
2023-02-22T13:21:07.863Z,8.90
2023-02-22T13:23:42.504Z,8.10
2023-02-22T13:26:17.544Z,9.00
2023-02-22T13:28:50.162Z,8.50
2023-02-22T13:31:44.045Z,8.60
2023-02-22T13:34:31.080Z,8.30
2023-02-22T13:37:31.927Z,8.50
2023-02-22T13:40:22.320Z,8.70
2023-02-22T13:43:17.477Z,8.70
2023-02-22T13:46:13.237Z,7.20
2023-02-22T13:49:15.211Z,8.10
2023-02-22T13:51:50.045Z,12.10
2023-02-22T13:54:24.510Z,8.50
2023-02-22T13:56:54.245Z,9.70
2023-02-22T13:59:29.296Z,8.60
2023-02-22T14:01:58.294Z,6.80
2023-02-22T14:06:59.613Z,6.90
2023-02-22T14:09:46.219Z,7.10
2023-02-22T14:12:55.802Z,6.30
2023-02-22T14:15:30.206Z,6.50
2023-02-22T14:18:00.930Z,7.40
2023-02-22T14:20:32.408Z,12.00
2023-02-22T14:23:30.952Z,9.40
2023-02-22T14:26:12.616Z,4.90
2023-02-22T14:28:48.660Z,7.00
2023-02-22T14:31:34.566Z,6.50
2023-02-22T14:34:07.252Z,6.20
2023-02-22T14:36:40.810Z,6.60
2023-02-22T14:39:16.901Z,6.40
2023-02-22T14:41:50.699Z,6.10
2023-02-22T14:44:24.953Z,6.70
2023-02-22T14:46:56.123Z,6.70
2023-02-22T14:49:28.508Z,7.30
2023-02-22T14:52:03.700Z,7.50
2023-02-22T14:54:42.232Z,7.10
2023-02-22T14:57:16.887Z,7.50
2023-02-22T14:59:58.140Z,7.90
2023-02-22T15:02:26.604Z,8.40
2023-02-22T15:04:56.309Z,8.10
2023-02-22T15:07:28.282Z,8.90
2023-02-22T15:10:20.773Z,8.90
2023-02-22T15:13:10.653Z,8.70
2023-02-22T15:15:43.762Z,7.50
2023-02-22T15:18:22.006Z,7.60
2023-02-22T15:20:56.005Z,7.30
2023-02-22T15:23:29.672Z,7.00
2023-02-22T15:25:59.161Z,6.60
2023-02-22T15:28:30.960Z,7.90
2023-02-22T15:31:22.735Z,6.90
2023-02-22T15:33:52.930Z,23.80
2023-02-22T15:36:23.017Z,6.90
2023-02-22T15:38:52.516Z,7.50
2023-02-22T15:41:28.336Z,8.60
2023-02-22T15:44:08.046Z,17.20
2023-02-22T15:46:39.592Z,7.90
2023-02-22T15:49:20.321Z,8.60
2023-02-22T15:52:01.640Z,9.20
2023-02-22T15:54:31.300Z,9.10
2023-02-22T15:57:00.770Z,10.20
2023-02-22T15:59:33.800Z,10.10
2023-02-22T16:02:02.070Z,9.60
2023-02-22T16:07:16.853Z,8.10
2023-02-22T16:09:49.626Z,8.50
2023-02-22T16:12:29.802Z,8.90
2023-02-22T16:14:58.124Z,8.50
2023-02-22T16:17:31.770Z,9.20
2023-02-22T16:20:01.020Z,10.00
2023-02-22T16:22:34.718Z,10.00
2023-02-22T16:25:27.213Z,9.50
2023-02-22T16:28:01.563Z,10.30
2023-02-22T16:30:32.901Z,15.20
2023-02-22T16:33:06.295Z,10.10
2023-02-22T16:35:35.704Z,8.90
2023-02-22T16:38:06.315Z,10.60
2023-02-22T16:40:36.871Z,10.70
2023-02-22T16:43:09.021Z,11.00
2023-02-22T16:45:37.178Z,10.50
2023-02-22T16:48:15.703Z,11.30
2023-02-22T16:50:43.909Z,11.50
2023-02-22T16:53:12.288Z,11.50
2023-02-22T16:55:44.711Z,20.70
2023-02-22T16:58:15.911Z,11.90
2023-02-22T17:00:44.158Z,13.30
2023-02-22T17:03:16.545Z,14.50
2023-02-22T17:05:45.211Z,15.70
2023-02-22T17:08:13.326Z,17.70
2023-02-22T17:10:41.314Z,19.60
2023-02-22T17:13:22.821Z,20.30
2023-02-22T17:15:54.882Z,20.50
2023-02-22T17:18:24.891Z,21.00
2023-02-22T17:20:54.904Z,21.10
2023-02-22T17:23:24.703Z,21.30
2023-02-22T17:25:55.141Z,21.40
2023-02-22T17:28:24.712Z,21.70
2023-02-22T17:30:55.735Z,22.40
2023-02-22T17:33:26.620Z,22.30
2023-02-22T17:35:55.924Z,21.60
2023-02-22T17:38:24.270Z,21.60
2023-02-22T17:40:52.605Z,21.20
2023-02-22T17:43:20.716Z,22.10
2023-02-22T17:45:48.950Z,22.40
2023-02-22T17:48:19.355Z,23.30
2023-02-22T17:50:49.346Z,24.00
2023-02-22T17:53:21.636Z,24.10
2023-02-22T17:55:50.255Z,23.80
2023-02-22T17:58:18.813Z,24.00
2023-02-22T18:00:49.262Z,23.50
2023-02-22T18:03:25.348Z,24.10
2023-02-22T18:05:56.299Z,23.60
2023-02-22T18:08:25.358Z,24.80
2023-02-22T18:10:56.605Z,25.60
2023-02-22T18:13:26.340Z,27.20
2023-02-22T18:15:57.912Z,26.80
2023-02-22T18:18:27.523Z,27.20
2023-02-22T18:20:59.911Z,27.20
2023-02-22T18:23:30.322Z,27.20
2023-02-22T18:26:10.781Z,27.40
2023-02-22T18:28:39.521Z,28.00
2023-02-22T18:31:09.205Z,28.20
2023-02-22T18:33:38.694Z,31.10
2023-02-22T18:36:08.056Z,27.90
2023-02-22T18:38:36.154Z,27.80
2023-02-22T18:41:06.110Z,27.70
2023-02-22T18:43:35.623Z,26.70
2023-02-22T18:46:08.225Z,25.70
2023-02-22T18:48:38.568Z,25.40
2023-02-22T18:51:09.783Z,25.70
2023-02-22T18:53:38.376Z,38.60
2023-02-22T18:56:08.390Z,25.30
2023-02-22T18:58:38.704Z,25.50
2023-02-22T19:01:07.717Z,25.60
2023-02-22T19:06:09.737Z,24.40
2023-02-22T19:08:39.580Z,24.90
2023-02-22T19:11:09.140Z,24.70
2023-02-22T19:16:07.290Z,24.70
2023-02-22T19:18:35.814Z,24.80
2023-02-22T19:21:08.607Z,24.70
2023-02-22T19:23:45.263Z,24.50
2023-02-22T19:26:13.945Z,25.00
2023-02-22T19:28:41.976Z,25.20
2023-02-22T19:31:14.463Z,25.60
2023-02-22T19:33:42.759Z,35.40
2023-02-22T19:36:12.455Z,25.90
2023-02-22T19:38:42.420Z,25.70
2023-02-22T19:41:12.437Z,25.70
2023-02-22T19:43:40.504Z,35.30
2023-02-22T19:46:09.086Z,25.80
2023-02-22T19:48:37.163Z,25.80
2023-02-22T19:51:07.279Z,25.80
2023-02-22T19:53:35.708Z,25.80
2023-02-22T19:56:09.515Z,25.50
2023-02-22T19:58:37.869Z,25.80
2023-02-22T20:01:13.294Z,26.10
2023-02-22T20:03:42.227Z,40.20
2023-02-22T20:06:11.128Z,25.70
2023-02-22T20:08:42.178Z,25.90
2023-02-22T20:11:13.023Z,26.20
2023-02-22T20:13:43.133Z,39.80
2023-02-22T20:16:15.580Z,27.40
2023-02-22T20:18:43.912Z,27.50
2023-02-22T20:21:14.512Z,27.50
2023-02-22T20:23:44.409Z,38.50
2023-02-22T20:26:18.188Z,27.30
2023-02-22T20:28:46.790Z,28.10
2023-02-22T20:31:16.497Z,28.10
2023-02-22T20:33:46.645Z,43.70
2023-02-22T20:36:16.521Z,29.30
2023-02-22T20:38:45.605Z,28.90
2023-02-22T20:41:20.985Z,29.10
2023-02-22T20:43:51.207Z,43.60
2023-02-22T20:46:19.567Z,29.00
2023-02-22T20:48:47.948Z,29.30
2023-02-22T20:51:18.235Z,29.40
2023-02-22T20:53:46.490Z,41.30
2023-02-22T20:56:15.156Z,30.10
2023-02-22T20:58:44.776Z,29.80
2023-02-22T21:01:16.982Z,31.40
2023-02-22T21:03:45.399Z,49.70
2023-02-22T21:06:16.520Z,36.40
2023-02-22T21:08:45.465Z,37.50
2023-02-22T21:11:15.265Z,39.40
2023-02-22T21:13:45.079Z,54.30
2023-02-22T21:16:19.523Z,41.00
2023-02-22T21:18:50.510Z,40.80
2023-02-22T21:21:19.032Z,40.40
2023-02-22T21:23:50.838Z,52.90
2023-02-22T21:26:20.866Z,39.30
2023-02-22T21:28:51.626Z,39.00
2023-02-22T21:31:22.252Z,39.40
2023-02-22T21:33:52.667Z,57.80
2023-02-22T21:36:25.113Z,40.40
2023-02-22T21:38:55.670Z,41.20
2023-02-22T21:41:27.583Z,46.90
2023-02-22T21:43:58.640Z,69.20
2023-02-22T21:46:28.999Z,48.10
2023-02-22T21:48:58.634Z,49.20
2023-02-22T21:51:31.912Z,48.80
2023-02-22T21:54:02.080Z,46.40
2023-02-22T21:56:32.283Z,47.00
2023-02-22T21:59:03.731Z,47.00
2023-02-22T22:01:33.840Z,47.30
2023-02-22T22:04:02.591Z,45.20
2023-02-22T22:06:33.054Z,46.00
2023-02-22T22:09:01.470Z,46.80
2023-02-22T22:11:30.696Z,47.40
2023-02-22T22:13:59.803Z,46.20
2023-02-22T22:16:30.345Z,47.20
2023-02-22T22:18:58.623Z,45.90
2023-02-22T22:21:27.222Z,45.40
2023-02-22T22:23:56.173Z,65.80
2023-02-22T22:26:25.963Z,45.00
2023-02-22T22:28:57.428Z,43.80
2023-02-22T22:31:26.876Z,43.10
2023-02-22T22:33:57.222Z,63.80
2023-02-22T22:36:27.648Z,42.20
2023-02-22T22:38:58.335Z,42.10
2023-02-22T22:41:28.875Z,42.80
2023-02-22T22:43:57.353Z,63.80
2023-02-22T22:46:25.442Z,42.20
2023-02-22T22:48:53.541Z,42.80
2023-02-22T22:51:23.074Z,42.30
2023-02-22T22:53:52.971Z,64.90
2023-02-22T22:56:26.382Z,43.60
2023-02-22T22:58:56.634Z,44.60
2023-02-22T23:01:27.808Z,44.60
2023-02-22T23:04:01.327Z,68.30
2023-02-22T23:06:33.279Z,45.90
2023-02-22T23:09:10.226Z,45.80
2023-02-22T23:11:44.205Z,45.00
2023-02-22T23:14:14.015Z,41.70
2023-02-22T23:16:42.939Z,42.00
2023-02-22T23:19:11.240Z,41.00
2023-02-22T23:21:43.270Z,42.10
2023-02-22T23:24:15.174Z,41.00
2023-02-22T23:26:48.300Z,41.80
2023-02-22T23:29:17.241Z,41.70
2023-02-22T23:31:48.181Z,42.20
2023-02-22T23:34:17.066Z,47.20
2023-02-22T23:36:46.760Z,46.30
2023-02-22T23:39:16.840Z,45.40
2023-02-22T23:41:45.000Z,46.90
2023-02-22T23:44:17.605Z,43.90
2023-02-22T23:46:48.355Z,46.10
2023-02-22T23:49:20.102Z,45.60
2023-02-22T23:51:50.447Z,44.90
2023-02-22T23:54:20.684Z,42.50
2023-02-22T23:56:56.516Z,43.30
2023-02-22T23:59:26.068Z,44.70
